sensor_id;sensor_type;location;lat;lon;timestamp;P1;durP1;ratioP1;P2;durP2;ratioP2
7965;SDS011;4028;43.272;26.932;2023-12-28T00:01:55;11.83;;;7.07;;
7965;SDS011;4028;43.272;26.932;2023-12-28T00:04:21;10.90;;;7.43;;
7965;SDS011;4028;43.272;26.932;2023-12-28T00:06:46;11.67;;;7.10;;
7965;SDS011;4028;43.272;26.932;2023-12-28T00:09:12;12.37;;;7.60;;
7965;SDS011;4028;43.272;26.932;2023-12-28T00:11:38;11.23;;;7.30;;
7965;SDS011;4028;43.272;26.932;2023-12-28T00:14:03;11.27;;;8.23;;
7965;SDS011;4028;43.272;26.932;2023-12-28T00:16:30;10.17;;;6.50;;
7965;SDS011;4028;43.272;26.932;2023-12-28T00:18:57;9.73;;;6.23;;
7965;SDS011;4028;43.272;26.932;2023-12-28T00:21:23;8.60;;;5.80;;
7965;SDS011;4028;43.272;26.932;2023-12-28T00:23:48;8.63;;;5.93;;
7965;SDS011;4028;43.272;26.932;2023-12-28T00:26:14;8.70;;;5.60;;
7965;SDS011;4028;43.272;26.932;2023-12-28T00:28:39;8.73;;;5.17;;
7965;SDS011;4028;43.272;26.932;2023-12-28T00:31:05;12.03;;;7.13;;
7965;SDS011;4028;43.272;26.932;2023-12-28T00:33:30;8.47;;;6.30;;
7965;SDS011;4028;43.272;26.932;2023-12-28T00:35:56;9.60;;;6.73;;
7965;SDS011;4028;43.272;26.932;2023-12-28T00:38:21;10.30;;;5.70;;
7965;SDS011;4028;43.272;26.932;2023-12-28T00:40:46;12.07;;;6.27;;
7965;SDS011;4028;43.272;26.932;2023-12-28T00:43:12;7.47;;;5.47;;
7965;SDS011;4028;43.272;26.932;2023-12-28T00:45:37;8.80;;;5.63;;
7965;SDS011;4028;43.272;26.932;2023-12-28T00:48:03;7.03;;;4.43;;
7965;SDS011;4028;43.272;26.932;2023-12-28T00:50:29;7.97;;;5.00;;
7965;SDS011;4028;43.272;26.932;2023-12-28T00:52:56;6.67;;;4.60;;
7965;SDS011;4028;43.272;26.932;2023-12-28T00:55:22;7.30;;;4.37;;
7965;SDS011;4028;43.272;26.932;2023-12-28T00:57:47;6.37;;;4.00;;
7965;SDS011;4028;43.272;26.932;2023-12-28T01:00:13;5.67;;;4.00;;
7965;SDS011;4028;43.272;26.932;2023-12-28T01:02:38;4.90;;;3.67;;
7965;SDS011;4028;43.272;26.932;2023-12-28T01:05:04;5.10;;;3.80;;
7965;SDS011;4028;43.272;26.932;2023-12-28T01:07:29;6.03;;;4.17;;
7965;SDS011;4028;43.272;26.932;2023-12-28T01:09:55;5.90;;;3.70;;
7965;SDS011;4028;43.272;26.932;2023-12-28T01:12:20;4.53;;;3.87;;
7965;SDS011;4028;43.272;26.932;2023-12-28T01:14:46;5.57;;;4.00;;
7965;SDS011;4028;43.272;26.932;2023-12-28T01:17:11;7.13;;;4.60;;
7965;SDS011;4028;43.272;26.932;2023-12-28T01:19:37;7.53;;;4.33;;
7965;SDS011;4028;43.272;26.932;2023-12-28T01:22:03;7.13;;;4.53;;
7965;SDS011;4028;43.272;26.932;2023-12-28T01:24:28;7.00;;;4.13;;
7965;SDS011;4028;43.272;26.932;2023-12-28T01:26:54;7.80;;;4.50;;
7965;SDS011;4028;43.272;26.932;2023-12-28T01:29:19;9.87;;;4.17;;
7965;SDS011;4028;43.272;26.932;2023-12-28T01:31:45;8.27;;;5.27;;
7965;SDS011;4028;43.272;26.932;2023-12-28T01:34:10;6.40;;;4.77;;
7965;SDS011;4028;43.272;26.932;2023-12-28T01:36:37;7.17;;;4.70;;
7965;SDS011;4028;43.272;26.932;2023-12-28T01:39:06;6.40;;;4.87;;
7965;SDS011;4028;43.272;26.932;2023-12-28T01:41:32;12.23;;;5.73;;
7965;SDS011;4028;43.272;26.932;2023-12-28T01:43:57;8.97;;;5.93;;
7965;SDS011;4028;43.272;26.932;2023-12-28T01:46:23;8.20;;;5.83;;
7965;SDS011;4028;43.272;26.932;2023-12-28T01:48:49;8.57;;;5.43;;
7965;SDS011;4028;43.272;26.932;2023-12-28T01:51:16;9.70;;;5.97;;
7965;SDS011;4028;43.272;26.932;2023-12-28T01:53:45;8.60;;;6.27;;
7965;SDS011;4028;43.272;26.932;2023-12-28T01:56:12;9.03;;;6.13;;
7965;SDS011;4028;43.272;26.932;2023-12-28T01:58:38;11.83;;;6.00;;
7965;SDS011;4028;43.272;26.932;2023-12-28T02:01:06;10.23;;;6.40;;
7965;SDS011;4028;43.272;26.932;2023-12-28T02:03:32;11.33;;;6.40;;
7965;SDS011;4028;43.272;26.932;2023-12-28T02:05:57;10.73;;;6.20;;
7965;SDS011;4028;43.272;26.932;2023-12-28T02:08:25;10.40;;;6.40;;
7965;SDS011;4028;43.272;26.932;2023-12-28T02:10:51;9.50;;;6.27;;
7965;SDS011;4028;43.272;26.932;2023-12-28T02:13:16;10.50;;;6.63;;
7965;SDS011;4028;43.272;26.932;2023-12-28T02:15:42;10.20;;;7.20;;
7965;SDS011;4028;43.272;26.932;2023-12-28T02:18:12;9.27;;;6.70;;
7965;SDS011;4028;43.272;26.932;2023-12-28T02:20:41;10.50;;;6.40;;
7965;SDS011;4028;43.272;26.932;2023-12-28T02:23:08;13.17;;;6.60;;
7965;SDS011;4028;43.272;26.932;2023-12-28T02:25:35;10.37;;;7.00;;
7965;SDS011;4028;43.272;26.932;2023-12-28T02:28:00;14.60;;;7.43;;
7965;SDS011;4028;43.272;26.932;2023-12-28T02:30:26;10.33;;;6.97;;
7965;SDS011;4028;43.272;26.932;2023-12-28T02:35:33;8.13;;;5.90;;
7965;SDS011;4028;43.272;26.932;2023-12-28T02:38:03;9.57;;;6.47;;
7965;SDS011;4028;43.272;26.932;2023-12-28T02:40:33;10.67;;;7.77;;
7965;SDS011;4028;43.272;26.932;2023-12-28T02:43:02;12.37;;;8.13;;
7965;SDS011;4028;43.272;26.932;2023-12-28T02:45:28;12.57;;;8.33;;
7965;SDS011;4028;43.272;26.932;2023-12-28T02:47:54;12.47;;;8.07;;
7965;SDS011;4028;43.272;26.932;2023-12-28T02:50:19;14.50;;;9.53;;
7965;SDS011;4028;43.272;26.932;2023-12-28T02:52:45;11.33;;;8.47;;
7965;SDS011;4028;43.272;26.932;2023-12-28T02:55:10;11.73;;;8.33;;
7965;SDS011;4028;43.272;26.932;2023-12-28T02:57:37;11.60;;;8.33;;
7965;SDS011;4028;43.272;26.932;2023-12-28T03:00:06;10.33;;;8.43;;
7965;SDS011;4028;43.272;26.932;2023-12-28T03:02:36;10.77;;;7.60;;
7965;SDS011;4028;43.272;26.932;2023-12-28T03:05:06;12.07;;;8.43;;
7965;SDS011;4028;43.272;26.932;2023-12-28T03:07:32;13.33;;;7.97;;
7965;SDS011;4028;43.272;26.932;2023-12-28T03:09:58;10.43;;;7.23;;
7965;SDS011;4028;43.272;26.932;2023-12-28T03:12:24;9.97;;;6.67;;
7965;SDS011;4028;43.272;26.932;2023-12-28T03:14:49;8.40;;;6.57;;
7965;SDS011;4028;43.272;26.932;2023-12-28T03:17:15;6.97;;;5.47;;
7965;SDS011;4028;43.272;26.932;2023-12-28T03:19:40;8.10;;;5.67;;
7965;SDS011;4028;43.272;26.932;2023-12-28T03:22:06;8.17;;;5.50;;
7965;SDS011;4028;43.272;26.932;2023-12-28T03:24:31;8.47;;;5.90;;
7965;SDS011;4028;43.272;26.932;2023-12-28T03:26:57;9.00;;;5.77;;
7965;SDS011;4028;43.272;26.932;2023-12-28T03:29:23;8.23;;;5.50;;
7965;SDS011;4028;43.272;26.932;2023-12-28T03:31:49;6.87;;;5.37;;
7965;SDS011;4028;43.272;26.932;2023-12-28T03:34:15;11.77;;;5.53;;
7965;SDS011;4028;43.272;26.932;2023-12-28T03:36:40;12.10;;;6.03;;
7965;SDS011;4028;43.272;26.932;2023-12-28T03:39:06;7.87;;;5.40;;
7965;SDS011;4028;43.272;26.932;2023-12-28T03:41:33;7.87;;;5.60;;
7965;SDS011;4028;43.272;26.932;2023-12-28T03:43:58;8.30;;;4.60;;
7965;SDS011;4028;43.272;26.932;2023-12-28T03:46:24;9.17;;;4.90;;
7965;SDS011;4028;43.272;26.932;2023-12-28T03:48:49;8.97;;;4.80;;
7965;SDS011;4028;43.272;26.932;2023-12-28T03:51:15;9.20;;;4.47;;
7965;SDS011;4028;43.272;26.932;2023-12-28T03:53:43;8.27;;;4.47;;
7965;SDS011;4028;43.272;26.932;2023-12-28T03:56:22;6.03;;;4.50;;
7965;SDS011;4028;43.272;26.932;2023-12-28T03:58:48;7.53;;;4.47;;
7965;SDS011;4028;43.272;26.932;2023-12-28T04:01:15;6.70;;;4.50;;
7965;SDS011;4028;43.272;26.932;2023-12-28T04:03:44;7.17;;;4.10;;
7965;SDS011;4028;43.272;26.932;2023-12-28T04:06:10;8.60;;;4.83;;
7965;SDS011;4028;43.272;26.932;2023-12-28T04:08:35;7.63;;;5.30;;
7965;SDS011;4028;43.272;26.932;2023-12-28T04:11:01;9.37;;;6.47;;
7965;SDS011;4028;43.272;26.932;2023-12-28T04:13:26;10.80;;;5.60;;
7965;SDS011;4028;43.272;26.932;2023-12-28T04:15:52;9.10;;;5.13;;
7965;SDS011;4028;43.272;26.932;2023-12-28T04:18:17;6.53;;;5.03;;
7965;SDS011;4028;43.272;26.932;2023-12-28T04:20:43;8.63;;;5.27;;
7965;SDS011;4028;43.272;26.932;2023-12-28T04:23:10;8.37;;;5.67;;
7965;SDS011;4028;43.272;26.932;2023-12-28T04:25:35;8.37;;;6.30;;
7965;SDS011;4028;43.272;26.932;2023-12-28T04:28:01;7.77;;;5.70;;
7965;SDS011;4028;43.272;26.932;2023-12-28T04:30:27;6.67;;;5.17;;
7965;SDS011;4028;43.272;26.932;2023-12-28T04:32:53;7.60;;;4.50;;
7965;SDS011;4028;43.272;26.932;2023-12-28T04:35:18;5.57;;;4.13;;
7965;SDS011;4028;43.272;26.932;2023-12-28T04:37:44;6.23;;;4.17;;
7965;SDS011;4028;43.272;26.932;2023-12-28T04:40:10;4.13;;;3.37;;
7965;SDS011;4028;43.272;26.932;2023-12-28T04:42:35;6.27;;;3.50;;
7965;SDS011;4028;43.272;26.932;2023-12-28T04:45:01;4.70;;;4.00;;
7965;SDS011;4028;43.272;26.932;2023-12-28T04:47:26;5.80;;;4.00;;
7965;SDS011;4028;43.272;26.932;2023-12-28T04:49:52;5.70;;;4.23;;
7965;SDS011;4028;43.272;26.932;2023-12-28T04:52:17;8.60;;;5.23;;
7965;SDS011;4028;43.272;26.932;2023-12-28T04:54:43;11.03;;;6.07;;
7965;SDS011;4028;43.272;26.932;2023-12-28T04:57:08;11.37;;;6.10;;
7965;SDS011;4028;43.272;26.932;2023-12-28T04:59:38;5.60;;;4.63;;
7965;SDS011;4028;43.272;26.932;2023-12-28T05:02:04;13.97;;;8.60;;
7965;SDS011;4028;43.272;26.932;2023-12-28T05:04:29;9.20;;;7.33;;
7965;SDS011;4028;43.272;26.932;2023-12-28T05:06:55;6.47;;;5.73;;
7965;SDS011;4028;43.272;26.932;2023-12-28T05:09:20;7.90;;;4.90;;
7965;SDS011;4028;43.272;26.932;2023-12-28T05:11:46;5.20;;;4.13;;
7965;SDS011;4028;43.272;26.932;2023-12-28T05:14:11;5.87;;;4.30;;
7965;SDS011;4028;43.272;26.932;2023-12-28T05:16:37;12.03;;;9.67;;
7965;SDS011;4028;43.272;26.932;2023-12-28T05:19:03;9.80;;;8.07;;
7965;SDS011;4028;43.272;26.932;2023-12-28T05:21:28;8.13;;;7.30;;
7965;SDS011;4028;43.272;26.932;2023-12-28T05:23:54;10.30;;;8.40;;
7965;SDS011;4028;43.272;26.932;2023-12-28T05:26:19;10.80;;;9.57;;
7965;SDS011;4028;43.272;26.932;2023-12-28T05:28:44;13.30;;;9.87;;
7965;SDS011;4028;43.272;26.932;2023-12-28T05:31:10;14.30;;;10.40;;
7965;SDS011;4028;43.272;26.932;2023-12-28T05:33:35;25.67;;;23.03;;
7965;SDS011;4028;43.272;26.932;2023-12-28T05:36:01;28.90;;;26.10;;
7965;SDS011;4028;43.272;26.932;2023-12-28T05:38:27;18.27;;;16.30;;
7965;SDS011;4028;43.272;26.932;2023-12-28T05:40:52;17.43;;;15.77;;
7965;SDS011;4028;43.272;26.932;2023-12-28T05:43:18;12.10;;;10.87;;
7965;SDS011;4028;43.272;26.932;2023-12-28T05:45:43;9.47;;;8.03;;
7965;SDS011;4028;43.272;26.932;2023-12-28T05:48:08;10.87;;;9.00;;
7965;SDS011;4028;43.272;26.932;2023-12-28T05:50:34;10.63;;;9.17;;
7965;SDS011;4028;43.272;26.932;2023-12-28T05:52:59;10.23;;;8.93;;
7965;SDS011;4028;43.272;26.932;2023-12-28T05:55:25;14.40;;;11.90;;
7965;SDS011;4028;43.272;26.932;2023-12-28T05:57:50;14.17;;;10.57;;
7965;SDS011;4028;43.272;26.932;2023-12-28T06:00:16;13.43;;;9.53;;
7965;SDS011;4028;43.272;26.932;2023-12-28T06:02:41;16.60;;;9.70;;
7965;SDS011;4028;43.272;26.932;2023-12-28T06:05:07;11.63;;;9.73;;
7965;SDS011;4028;43.272;26.932;2023-12-28T06:07:32;14.07;;;9.93;;
7965;SDS011;4028;43.272;26.932;2023-12-28T06:09:59;17.10;;;9.37;;
7965;SDS011;4028;43.272;26.932;2023-12-28T06:12:24;20.23;;;9.70;;
7965;SDS011;4028;43.272;26.932;2023-12-28T06:14:50;20.60;;;10.77;;
7965;SDS011;4028;43.272;26.932;2023-12-28T06:17:15;17.23;;;9.97;;
7965;SDS011;4028;43.272;26.932;2023-12-28T06:19:43;17.60;;;10.27;;
7965;SDS011;4028;43.272;26.932;2023-12-28T06:22:08;19.43;;;9.97;;
7965;SDS011;4028;43.272;26.932;2023-12-28T06:24:37;15.97;;;9.57;;
7965;SDS011;4028;43.272;26.932;2023-12-28T06:27:03;11.93;;;9.37;;
7965;SDS011;4028;43.272;26.932;2023-12-28T06:29:28;20.30;;;10.33;;
7965;SDS011;4028;43.272;26.932;2023-12-28T06:31:54;24.47;;;14.63;;
7965;SDS011;4028;43.272;26.932;2023-12-28T06:34:19;21.30;;;12.77;;
7965;SDS011;4028;43.272;26.932;2023-12-28T06:36:45;33.07;;;21.57;;
7965;SDS011;4028;43.272;26.932;2023-12-28T06:39:10;34.60;;;19.53;;
7965;SDS011;4028;43.272;26.932;2023-12-28T06:41:36;31.33;;;18.97;;
7965;SDS011;4028;43.272;26.932;2023-12-28T06:44:01;31.50;;;19.30;;
7965;SDS011;4028;43.272;26.932;2023-12-28T06:46:27;30.27;;;18.97;;
7965;SDS011;4028;43.272;26.932;2023-12-28T06:48:52;25.43;;;16.70;;
7965;SDS011;4028;43.272;26.932;2023-12-28T06:51:18;22.77;;;14.30;;
7965;SDS011;4028;43.272;26.932;2023-12-28T06:53:45;19.63;;;14.90;;
7965;SDS011;4028;43.272;26.932;2023-12-28T06:56:10;17.73;;;12.03;;
7965;SDS011;4028;43.272;26.932;2023-12-28T06:58:36;19.83;;;14.63;;
7965;SDS011;4028;43.272;26.932;2023-12-28T07:01:05;24.67;;;17.03;;
7965;SDS011;4028;43.272;26.932;2023-12-28T07:03:31;24.10;;;16.57;;
7965;SDS011;4028;43.272;26.932;2023-12-28T07:06:00;29.73;;;17.83;;
7965;SDS011;4028;43.272;26.932;2023-12-28T07:08:26;33.30;;;23.30;;
7965;SDS011;4028;43.272;26.932;2023-12-28T07:10:51;33.87;;;23.30;;
7965;SDS011;4028;43.272;26.932;2023-12-28T07:13:17;30.10;;;21.23;;
7965;SDS011;4028;43.272;26.932;2023-12-28T07:15:43;29.10;;;21.73;;
7965;SDS011;4028;43.272;26.932;2023-12-28T07:18:08;26.83;;;20.83;;
7965;SDS011;4028;43.272;26.932;2023-12-28T07:20:34;25.10;;;17.23;;
7965;SDS011;4028;43.272;26.932;2023-12-28T07:22:59;19.20;;;16.03;;
7965;SDS011;4028;43.272;26.932;2023-12-28T07:25:25;21.87;;;17.67;;
7965;SDS011;4028;43.272;26.932;2023-12-28T07:27:50;21.30;;;16.53;;
7965;SDS011;4028;43.272;26.932;2023-12-28T07:30:16;27.57;;;18.90;;
7965;SDS011;4028;43.272;26.932;2023-12-28T07:32:42;25.33;;;18.33;;
7965;SDS011;4028;43.272;26.932;2023-12-28T07:35:09;21.47;;;15.40;;
7965;SDS011;4028;43.272;26.932;2023-12-28T07:37:34;22.30;;;18.33;;
7965;SDS011;4028;43.272;26.932;2023-12-28T07:40:00;24.90;;;21.57;;
7965;SDS011;4028;43.272;26.932;2023-12-28T07:42:27;22.57;;;16.80;;
7965;SDS011;4028;43.272;26.932;2023-12-28T07:44:52;24.90;;;15.00;;
7965;SDS011;4028;43.272;26.932;2023-12-28T07:47:18;20.23;;;12.93;;
7965;SDS011;4028;43.272;26.932;2023-12-28T07:49:43;19.53;;;11.80;;
7965;SDS011;4028;43.272;26.932;2023-12-28T07:52:09;24.00;;;12.27;;
7965;SDS011;4028;43.272;26.932;2023-12-28T07:54:34;15.33;;;11.07;;
7965;SDS011;4028;43.272;26.932;2023-12-28T07:57:00;13.80;;;9.33;;
7965;SDS011;4028;43.272;26.932;2023-12-28T07:59:25;19.73;;;11.33;;
7965;SDS011;4028;43.272;26.932;2023-12-28T08:01:51;14.93;;;10.57;;
7965;SDS011;4028;43.272;26.932;2023-12-28T08:04:16;12.17;;;10.73;;
7965;SDS011;4028;43.272;26.932;2023-12-28T08:06:42;16.03;;;12.27;;
7965;SDS011;4028;43.272;26.932;2023-12-28T08:09:07;12.67;;;10.17;;
7965;SDS011;4028;43.272;26.932;2023-12-28T08:11:33;16.67;;;10.93;;
7965;SDS011;4028;43.272;26.932;2023-12-28T08:13:59;14.73;;;9.87;;
7965;SDS011;4028;43.272;26.932;2023-12-28T08:16:25;14.50;;;8.20;;
7965;SDS011;4028;43.272;26.932;2023-12-28T08:18:51;15.43;;;9.67;;
7965;SDS011;4028;43.272;26.932;2023-12-28T08:21:17;12.93;;;8.80;;
7965;SDS011;4028;43.272;26.932;2023-12-28T08:23:43;10.40;;;8.50;;
7965;SDS011;4028;43.272;26.932;2023-12-28T08:26:08;12.57;;;7.53;;
7965;SDS011;4028;43.272;26.932;2023-12-28T08:28:35;11.73;;;8.33;;
7965;SDS011;4028;43.272;26.932;2023-12-28T08:31:00;13.80;;;9.33;;
7965;SDS011;4028;43.272;26.932;2023-12-28T08:33:25;16.27;;;9.23;;
7965;SDS011;4028;43.272;26.932;2023-12-28T08:35:51;13.77;;;9.13;;
7965;SDS011;4028;43.272;26.932;2023-12-28T08:38:16;15.53;;;9.57;;
7965;SDS011;4028;43.272;26.932;2023-12-28T08:40:42;16.10;;;8.67;;
7965;SDS011;4028;43.272;26.932;2023-12-28T08:43:09;13.17;;;8.47;;
7965;SDS011;4028;43.272;26.932;2023-12-28T08:45:35;13.43;;;7.37;;
7965;SDS011;4028;43.272;26.932;2023-12-28T08:48:00;12.03;;;7.67;;
7965;SDS011;4028;43.272;26.932;2023-12-28T08:50:26;17.63;;;7.63;;
7965;SDS011;4028;43.272;26.932;2023-12-28T08:52:52;12.30;;;7.97;;
7965;SDS011;4028;43.272;26.932;2023-12-28T08:55:17;12.63;;;7.43;;
7965;SDS011;4028;43.272;26.932;2023-12-28T08:57:43;8.33;;;6.20;;
7965;SDS011;4028;43.272;26.932;2023-12-28T09:00:08;10.57;;;6.33;;
7965;SDS011;4028;43.272;26.932;2023-12-28T09:02:35;14.03;;;6.90;;
7965;SDS011;4028;43.272;26.932;2023-12-28T09:05:00;11.83;;;6.47;;
7965;SDS011;4028;43.272;26.932;2023-12-28T09:07:26;11.13;;;7.10;;
7965;SDS011;4028;43.272;26.932;2023-12-28T09:09:51;13.20;;;6.83;;
7965;SDS011;4028;43.272;26.932;2023-12-28T09:12:17;13.13;;;6.23;;
7965;SDS011;4028;43.272;26.932;2023-12-28T09:14:42;15.87;;;6.50;;
7965;SDS011;4028;43.272;26.932;2023-12-28T09:17:08;9.93;;;6.80;;
7965;SDS011;4028;43.272;26.932;2023-12-28T09:19:33;8.80;;;6.73;;
7965;SDS011;4028;43.272;26.932;2023-12-28T09:21:59;10.17;;;6.77;;
7965;SDS011;4028;43.272;26.932;2023-12-28T09:24:24;10.77;;;6.97;;
7965;SDS011;4028;43.272;26.932;2023-12-28T09:26:50;12.93;;;6.53;;
7965;SDS011;4028;43.272;26.932;2023-12-28T09:29:15;10.67;;;5.97;;
7965;SDS011;4028;43.272;26.932;2023-12-28T09:31:41;11.10;;;5.63;;
7965;SDS011;4028;43.272;26.932;2023-12-28T09:34:06;13.43;;;5.33;;
7965;SDS011;4028;43.272;26.932;2023-12-28T09:36:32;5.43;;;3.90;;
7965;SDS011;4028;43.272;26.932;2023-12-28T09:38:57;5.73;;;3.93;;
7965;SDS011;4028;43.272;26.932;2023-12-28T09:41:25;4.80;;;3.20;;
7965;SDS011;4028;43.272;26.932;2023-12-28T09:44:34;9.27;;;5.37;;
7965;SDS011;4028;43.272;26.932;2023-12-28T09:46:43;7.67;;;4.23;;
7965;SDS011;4028;43.272;26.932;2023-12-28T09:49:11;8.77;;;6.50;;
7965;SDS011;4028;43.272;26.932;2023-12-28T09:51:36;10.83;;;5.27;;
7965;SDS011;4028;43.272;26.932;2023-12-28T09:54:05;6.00;;;3.37;;
7965;SDS011;4028;43.272;26.932;2023-12-28T09:56:32;7.43;;;4.30;;
7965;SDS011;4028;43.272;26.932;2023-12-28T09:58:58;5.23;;;3.80;;
7965;SDS011;4028;43.272;26.932;2023-12-28T10:01:24;5.87;;;3.47;;
7965;SDS011;4028;43.272;26.932;2023-12-28T10:03:50;10.17;;;4.13;;
7965;SDS011;4028;43.272;26.932;2023-12-28T10:06:15;5.77;;;3.83;;
7965;SDS011;4028;43.272;26.932;2023-12-28T10:08:45;6.87;;;4.20;;
7965;SDS011;4028;43.272;26.932;2023-12-28T10:11:17;5.17;;;3.90;;
7965;SDS011;4028;43.272;26.932;2023-12-28T10:13:43;7.00;;;4.43;;
7965;SDS011;4028;43.272;26.932;2023-12-28T10:16:10;5.17;;;4.07;;
7965;SDS011;4028;43.272;26.932;2023-12-28T10:18:36;4.70;;;3.40;;
7965;SDS011;4028;43.272;26.932;2023-12-28T10:21:06;6.70;;;3.97;;
7965;SDS011;4028;43.272;26.932;2023-12-28T10:23:32;5.57;;;3.23;;
7965;SDS011;4028;43.272;26.932;2023-12-28T10:25:58;5.63;;;4.30;;
7965;SDS011;4028;43.272;26.932;2023-12-28T10:28:24;7.03;;;3.77;;
7965;SDS011;4028;43.272;26.932;2023-12-28T10:30:54;4.70;;;3.63;;
7965;SDS011;4028;43.272;26.932;2023-12-28T10:33:21;5.03;;;3.63;;
7965;SDS011;4028;43.272;26.932;2023-12-28T10:35:47;4.67;;;3.00;;
7965;SDS011;4028;43.272;26.932;2023-12-28T10:38:15;4.53;;;3.30;;
7965;SDS011;4028;43.272;26.932;2023-12-28T10:40:42;5.50;;;3.10;;
7965;SDS011;4028;43.272;26.932;2023-12-28T10:43:09;5.67;;;3.60;;
7965;SDS011;4028;43.272;26.932;2023-12-28T10:45:39;3.80;;;3.33;;
7965;SDS011;4028;43.272;26.932;2023-12-28T10:50:39;5.90;;;3.33;;
7965;SDS011;4028;43.272;26.932;2023-12-28T11:01:28;4.23;;;3.00;;
7965;SDS011;4028;43.272;26.932;2023-12-28T11:04:03;3.93;;;3.07;;
7965;SDS011;4028;43.272;26.932;2023-12-28T11:06:33;5.87;;;3.40;;
7965;SDS011;4028;43.272;26.932;2023-12-28T11:09:00;4.93;;;3.30;;
7965;SDS011;4028;43.272;26.932;2023-12-28T11:11:26;5.73;;;3.33;;
7965;SDS011;4028;43.272;26.932;2023-12-28T11:13:54;4.27;;;3.43;;
7965;SDS011;4028;43.272;26.932;2023-12-28T11:16:21;4.23;;;3.30;;
7965;SDS011;4028;43.272;26.932;2023-12-28T11:18:47;4.43;;;3.37;;
7965;SDS011;4028;43.272;26.932;2023-12-28T11:21:14;5.63;;;3.20;;
7965;SDS011;4028;43.272;26.932;2023-12-28T11:23:41;4.43;;;3.40;;
7965;SDS011;4028;43.272;26.932;2023-12-28T11:26:21;3.73;;;3.43;;
7965;SDS011;4028;43.272;26.932;2023-12-28T11:28:47;6.93;;;3.03;;
7965;SDS011;4028;43.272;26.932;2023-12-28T11:31:13;4.03;;;3.07;;
7965;SDS011;4028;43.272;26.932;2023-12-28T11:33:46;7.63;;;3.30;;
7965;SDS011;4028;43.272;26.932;2023-12-28T11:36:24;5.17;;;3.37;;
7965;SDS011;4028;43.272;26.932;2023-12-28T11:38:58;6.20;;;3.10;;
7965;SDS011;4028;43.272;26.932;2023-12-28T11:41:32;5.80;;;3.00;;
7965;SDS011;4028;43.272;26.932;2023-12-28T11:44:01;4.53;;;3.27;;
7965;SDS011;4028;43.272;26.932;2023-12-28T11:46:30;7.40;;;3.50;;
7965;SDS011;4028;43.272;26.932;2023-12-28T11:49:03;4.47;;;3.00;;
7965;SDS011;4028;43.272;26.932;2023-12-28T11:51:29;4.47;;;3.17;;
7965;SDS011;4028;43.272;26.932;2023-12-28T11:53:55;6.70;;;3.20;;
7965;SDS011;4028;43.272;26.932;2023-12-28T11:56:21;3.10;;;2.80;;
7965;SDS011;4028;43.272;26.932;2023-12-28T11:58:46;4.43;;;3.33;;
7965;SDS011;4028;43.272;26.932;2023-12-28T12:01:13;4.77;;;3.50;;
7965;SDS011;4028;43.272;26.932;2023-12-28T12:03:38;6.00;;;3.87;;
7965;SDS011;4028;43.272;26.932;2023-12-28T12:06:04;6.90;;;3.23;;
7965;SDS011;4028;43.272;26.932;2023-12-28T12:08:30;3.73;;;3.00;;
7965;SDS011;4028;43.272;26.932;2023-12-28T12:11:02;6.27;;;3.53;;
7965;SDS011;4028;43.272;26.932;2023-12-28T12:13:30;5.57;;;3.20;;
7965;SDS011;4028;43.272;26.932;2023-12-28T12:15:56;4.13;;;3.00;;
7965;SDS011;4028;43.272;26.932;2023-12-28T12:18:22;4.73;;;3.20;;
7965;SDS011;4028;43.272;26.932;2023-12-28T12:20:48;3.37;;;2.80;;
7965;SDS011;4028;43.272;26.932;2023-12-28T12:23:15;4.73;;;3.17;;
7965;SDS011;4028;43.272;26.932;2023-12-28T12:25:41;3.60;;;3.27;;
7965;SDS011;4028;43.272;26.932;2023-12-28T12:28:07;3.60;;;3.30;;
7965;SDS011;4028;43.272;26.932;2023-12-28T12:30:34;5.33;;;3.70;;
7965;SDS011;4028;43.272;26.932;2023-12-28T12:32:59;3.63;;;3.27;;
7965;SDS011;4028;43.272;26.932;2023-12-28T12:35:25;4.10;;;3.20;;
7965;SDS011;4028;43.272;26.932;2023-12-28T12:37:52;4.93;;;2.93;;
7965;SDS011;4028;43.272;26.932;2023-12-28T12:40:19;5.07;;;3.10;;
7965;SDS011;4028;43.272;26.932;2023-12-28T12:42:55;5.07;;;3.33;;
7965;SDS011;4028;43.272;26.932;2023-12-28T12:45:21;4.60;;;3.40;;
7965;SDS011;4028;43.272;26.932;2023-12-28T12:47:50;12.40;;;5.20;;
7965;SDS011;4028;43.272;26.932;2023-12-28T12:50:16;11.80;;;5.40;;
7965;SDS011;4028;43.272;26.932;2023-12-28T12:52:43;6.73;;;4.07;;
7965;SDS011;4028;43.272;26.932;2023-12-28T12:55:13;4.33;;;3.67;;
7965;SDS011;4028;43.272;26.932;2023-12-28T12:57:39;7.27;;;4.03;;
7965;SDS011;4028;43.272;26.932;2023-12-28T13:00:05;10.57;;;4.13;;
7965;SDS011;4028;43.272;26.932;2023-12-28T13:02:34;6.03;;;3.80;;
7965;SDS011;4028;43.272;26.932;2023-12-28T13:05:03;8.17;;;4.60;;
7965;SDS011;4028;43.272;26.932;2023-12-28T13:07:30;7.27;;;4.93;;
7965;SDS011;4028;43.272;26.932;2023-12-28T13:09:56;5.60;;;4.43;;
7965;SDS011;4028;43.272;26.932;2023-12-28T13:12:22;9.57;;;4.90;;
7965;SDS011;4028;43.272;26.932;2023-12-28T13:14:49;5.90;;;4.30;;
7965;SDS011;4028;43.272;26.932;2023-12-28T13:17:14;5.00;;;4.33;;
7965;SDS011;4028;43.272;26.932;2023-12-28T13:19:41;10.20;;;5.03;;
7965;SDS011;4028;43.272;26.932;2023-12-28T13:22:07;6.23;;;5.27;;
7965;SDS011;4028;43.272;26.932;2023-12-28T13:24:32;9.53;;;5.67;;
7965;SDS011;4028;43.272;26.932;2023-12-28T13:26:58;10.60;;;6.23;;
7965;SDS011;4028;43.272;26.932;2023-12-28T13:29:23;8.37;;;5.43;;
7965;SDS011;4028;43.272;26.932;2023-12-28T13:31:49;12.13;;;6.60;;
7965;SDS011;4028;43.272;26.932;2023-12-28T13:34:16;14.40;;;7.47;;
7965;SDS011;4028;43.272;26.932;2023-12-28T13:36:43;16.93;;;7.00;;
7965;SDS011;4028;43.272;26.932;2023-12-28T13:39:09;17.10;;;7.57;;
7965;SDS011;4028;43.272;26.932;2023-12-28T13:41:36;13.87;;;8.20;;
7965;SDS011;4028;43.272;26.932;2023-12-28T13:44:02;15.17;;;8.20;;
7965;SDS011;4028;43.272;26.932;2023-12-28T13:46:30;15.93;;;8.20;;
7965;SDS011;4028;43.272;26.932;2023-12-28T13:48:56;14.33;;;8.83;;
7965;SDS011;4028;43.272;26.932;2023-12-28T13:51:22;17.70;;;8.73;;
7965;SDS011;4028;43.272;26.932;2023-12-28T13:53:48;17.27;;;9.33;;
7965;SDS011;4028;43.272;26.932;2023-12-28T13:56:13;23.50;;;9.90;;
7965;SDS011;4028;43.272;26.932;2023-12-28T13:58:39;15.43;;;8.70;;
7965;SDS011;4028;43.272;26.932;2023-12-28T14:01:04;23.63;;;8.47;;
7965;SDS011;4028;43.272;26.932;2023-12-28T14:03:30;18.63;;;8.60;;
7965;SDS011;4028;43.272;26.932;2023-12-28T14:05:55;22.10;;;10.00;;
7965;SDS011;4028;43.272;26.932;2023-12-28T14:08:21;17.90;;;9.33;;
7965;SDS011;4028;43.272;26.932;2023-12-28T14:10:46;19.70;;;10.43;;
7965;SDS011;4028;43.272;26.932;2023-12-28T14:13:12;19.07;;;10.97;;
7965;SDS011;4028;43.272;26.932;2023-12-28T14:15:38;26.27;;;10.90;;
7965;SDS011;4028;43.272;26.932;2023-12-28T14:18:03;20.50;;;11.23;;
7965;SDS011;4028;43.272;26.932;2023-12-28T14:20:32;18.93;;;12.03;;
7965;SDS011;4028;43.272;26.932;2023-12-28T14:22:57;29.87;;;12.27;;
7965;SDS011;4028;43.272;26.932;2023-12-28T14:25:23;20.97;;;12.30;;
7965;SDS011;4028;43.272;26.932;2023-12-28T14:27:49;22.87;;;13.20;;
7965;SDS011;4028;43.272;26.932;2023-12-28T14:30:15;24.67;;;14.37;;
7965;SDS011;4028;43.272;26.932;2023-12-28T14:32:41;31.17;;;14.23;;
7965;SDS011;4028;43.272;26.932;2023-12-28T14:35:07;27.77;;;17.53;;
7965;SDS011;4028;43.272;26.932;2023-12-28T14:37:33;21.43;;;15.30;;
7965;SDS011;4028;43.272;26.932;2023-12-28T14:39:58;25.80;;;14.37;;
7965;SDS011;4028;43.272;26.932;2023-12-28T14:42:24;30.37;;;13.87;;
7965;SDS011;4028;43.272;26.932;2023-12-28T14:44:49;21.83;;;14.33;;
7965;SDS011;4028;43.272;26.932;2023-12-28T14:47:16;23.70;;;14.03;;
7965;SDS011;4028;43.272;26.932;2023-12-28T14:49:42;24.57;;;15.43;;
7965;SDS011;4028;43.272;26.932;2023-12-28T14:52:09;35.47;;;16.73;;
7965;SDS011;4028;43.272;26.932;2023-12-28T14:54:35;23.77;;;16.77;;
7965;SDS011;4028;43.272;26.932;2023-12-28T14:57:00;21.00;;;15.27;;
7965;SDS011;4028;43.272;26.932;2023-12-28T14:59:26;27.60;;;15.93;;